createdAt,value
2022-12-17T00:00:54.064Z,0.86
2022-12-17T00:01:57.852Z,0.86
2022-12-17T00:03:00.726Z,0.88
2022-12-17T00:04:03.218Z,0.81
2022-12-17T00:05:06.781Z,0.87
2022-12-17T00:06:08.789Z,0.84
2022-12-17T00:07:10.650Z,0.82
2022-12-17T00:08:12.575Z,0.84
2022-12-17T00:09:14.461Z,0.86
2022-12-17T00:10:16.919Z,0.84
2022-12-17T00:11:18.858Z,0.86
2022-12-17T00:12:20.723Z,0.87
2022-12-17T00:13:22.773Z,0.83
2022-12-17T00:14:24.770Z,0.81
2022-12-17T00:15:26.675Z,0.84
2022-12-17T00:16:28.828Z,0.88
2022-12-17T00:17:30.984Z,0.85
2022-12-17T00:18:32.856Z,0.82
2022-12-17T00:19:34.727Z,0.86
2022-12-17T00:20:37.082Z,0.83
2022-12-17T00:21:38.965Z,0.82
2022-12-17T00:22:41.061Z,0.82
2022-12-17T00:23:44.350Z,0.83
2022-12-17T00:24:46.251Z,0.76
2022-12-17T00:25:53.382Z,0.78
2022-12-17T00:26:55.640Z,0.78
2022-12-17T00:27:58.542Z,0.81
2022-12-17T00:29:00.480Z,0.84
2022-12-17T00:30:03.415Z,0.79
2022-12-17T00:31:05.614Z,0.80
2022-12-17T00:32:08.725Z,0.81
2022-12-17T00:33:12.569Z,0.79
2022-12-17T00:34:14.987Z,0.80
2022-12-17T00:35:16.910Z,0.79
2022-12-17T00:36:18.912Z,0.83
2022-12-17T00:37:21.447Z,0.82
2022-12-17T00:38:23.369Z,0.81
2022-12-17T00:39:25.262Z,0.79
2022-12-17T00:40:27.271Z,0.79
2022-12-17T00:41:29.269Z,0.81
2022-12-17T00:42:31.253Z,0.81
2022-12-17T00:43:33.366Z,0.81
2022-12-17T00:44:35.765Z,0.83
2022-12-17T00:45:37.652Z,0.84
2022-12-17T00:46:39.800Z,0.86
2022-12-17T00:47:41.765Z,0.87
2022-12-17T00:48:44.460Z,0.84
2022-12-17T00:49:46.380Z,0.84
2022-12-17T00:50:49.295Z,0.83
2022-12-17T00:51:51.213Z,0.79
2022-12-17T00:52:55.110Z,0.82
2022-12-17T00:54:01.655Z,0.85
2022-12-17T00:55:04.960Z,0.83
2022-12-17T00:56:08.060Z,0.85
2022-12-17T00:57:09.976Z,0.86
2022-12-17T00:58:12.316Z,0.88
2022-12-17T00:59:14.737Z,0.83
2022-12-17T01:00:16.975Z,0.84
2022-12-17T01:01:19.074Z,0.86
2022-12-17T01:02:21.471Z,0.87
2022-12-17T01:03:24.225Z,0.83
2022-12-17T01:04:26.159Z,0.85
2022-12-17T01:05:28.039Z,0.87
2022-12-17T01:06:30.023Z,0.90
2022-12-17T01:07:31.999Z,0.84
2022-12-17T01:08:34.072Z,0.85
2022-12-17T01:09:35.974Z,0.88
2022-12-17T01:10:39.288Z,0.91
2022-12-17T01:11:41.192Z,0.93
2022-12-17T01:12:43.068Z,0.93
2022-12-17T01:13:45.572Z,0.92
2022-12-17T01:14:48.194Z,0.95
2022-12-17T01:15:50.129Z,0.94
2022-12-17T01:16:53.485Z,0.93
2022-12-17T01:17:58.279Z,0.93
2022-12-17T01:19:00.204Z,0.90
2022-12-17T01:20:02.662Z,0.87
2022-12-17T01:21:04.944Z,0.93
2022-12-17T01:22:06.866Z,0.93
2022-12-17T01:23:09.118Z,0.92
2022-12-17T01:24:11.172Z,0.92
2022-12-17T01:25:13.374Z,0.94
2022-12-17T01:26:15.808Z,0.88
2022-12-17T01:27:17.799Z,0.89
2022-12-17T01:28:26.531Z,0.89
2022-12-17T01:29:28.470Z,0.90
2022-12-17T01:30:30.590Z,0.91
2022-12-17T01:31:35.166Z,0.90
2022-12-17T01:32:36.772Z,0.91
2022-12-17T01:33:39.409Z,0.89
2022-12-17T01:34:41.688Z,0.87
2022-12-17T01:35:44.449Z,0.86
2022-12-17T01:36:46.565Z,0.90
2022-12-17T01:37:51.362Z,0.92
2022-12-17T01:38:54.016Z,0.90
2022-12-17T01:39:55.951Z,0.93
2022-12-17T01:40:58.623Z,0.89
2022-12-17T01:42:00.498Z,0.92
2022-12-17T01:43:04.572Z,0.88
2022-12-17T01:44:44.131Z,0.85
2022-12-17T01:45:49.300Z,0.86
2022-12-17T01:46:52.272Z,0.87
2022-12-17T01:48:07.093Z,0.84
2022-12-17T01:49:11.845Z,0.84
2022-12-17T01:50:16.886Z,0.86
2022-12-17T01:51:19.497Z,0.84
2022-12-17T01:52:21.558Z,0.85
2022-12-17T01:53:27.145Z,0.85
2022-12-17T01:54:29.374Z,0.88
2022-12-17T01:55:31.771Z,0.87
2022-12-17T01:56:36.897Z,0.90
2022-12-17T01:57:41.184Z,0.88
2022-12-17T01:58:43.939Z,0.88
2022-12-17T02:00:01.921Z,0.88
2022-12-17T02:01:05.975Z,0.92
2022-12-17T02:02:08.141Z,0.91
2022-12-17T02:03:16.861Z,0.91
2022-12-17T02:04:19.281Z,0.94
2022-12-17T02:05:25.733Z,0.92
2022-12-17T02:06:32.133Z,0.93
2022-12-17T02:09:20.202Z,1.04
2022-12-17T02:10:25.977Z,0.92
2022-12-17T02:11:49.665Z,0.93
2022-12-17T02:12:54.692Z,0.94
2022-12-17T02:14:09.014Z,0.94
2022-12-17T02:15:20.775Z,0.91
2022-12-17T02:16:41.787Z,0.88
2022-12-17T02:17:47.724Z,0.90
2022-12-17T02:18:59.144Z,0.96
2022-12-17T02:20:05.857Z,0.92
2022-12-17T02:21:10.713Z,0.93
2022-12-17T02:22:33.543Z,0.96
2022-12-17T02:24:01.950Z,0.95
2022-12-17T02:25:07.798Z,0.97
2022-12-17T02:26:19.497Z,1.00
2022-12-17T02:27:24.052Z,0.98
2022-12-17T02:28:27.182Z,0.98
2022-12-17T02:29:32.931Z,0.99
2022-12-17T02:30:37.906Z,0.94
2022-12-17T02:31:42.730Z,0.96
2022-12-17T02:32:47.168Z,0.96
2022-12-17T02:33:49.427Z,0.95
2022-12-17T02:34:52.531Z,0.95
2022-12-17T02:35:58.212Z,0.92
2022-12-17T02:37:00.244Z,0.92
2022-12-17T02:38:04.259Z,0.92
2022-12-17T02:39:06.316Z,0.92
2022-12-17T02:40:09.940Z,0.94
2022-12-17T02:41:21.151Z,0.93
2022-12-17T02:42:25.760Z,0.94
2022-12-17T02:43:29.691Z,0.94
2022-12-17T02:44:33.951Z,0.92
2022-12-17T02:45:36.166Z,0.93
2022-12-17T02:46:41.602Z,0.96
2022-12-17T02:47:44.571Z,0.97
2022-12-17T02:48:46.765Z,0.99
2022-12-17T02:49:50.976Z,1.00
2022-12-17T02:50:53.396Z,0.98
2022-12-17T02:51:58.012Z,0.99
2022-12-17T02:53:02.237Z,1.01
2022-12-17T02:54:04.431Z,0.99
2022-12-17T02:55:07.406Z,1.01
2022-12-17T02:56:09.418Z,1.03
2022-12-17T02:57:11.293Z,1.02
2022-12-17T02:58:15.050Z,1.03
2022-12-17T02:59:17.134Z,1.02
2022-12-17T03:00:19.358Z,1.01
2022-12-17T03:01:21.349Z,0.99
2022-12-17T03:02:23.682Z,1.00
2022-12-17T03:03:25.914Z,1.00
2022-12-17T03:04:28.137Z,1.01
2022-12-17T03:05:46.046Z,1.01
2022-12-17T03:06:34.028Z,1.02
2022-12-17T03:07:35.934Z,1.05
2022-12-17T03:08:40.665Z,1.08
2022-12-17T03:09:43.796Z,1.06
2022-12-17T03:10:46.113Z,1.05
2022-12-17T03:11:49.372Z,1.05
2022-12-17T03:12:51.343Z,1.04
2022-12-17T03:13:53.217Z,1.05
2022-12-17T03:14:55.539Z,1.06
2022-12-17T03:16:01.165Z,1.04
2022-12-17T03:17:03.127Z,1.07
2022-12-17T03:18:05.565Z,1.08
2022-12-17T03:19:09.378Z,1.07
2022-12-17T03:20:12.117Z,1.05
2022-12-17T03:21:13.982Z,1.07
2022-12-17T03:22:15.950Z,1.05
2022-12-17T03:23:17.827Z,1.07
2022-12-17T03:24:19.727Z,1.05
2022-12-17T03:25:21.629Z,1.05
2022-12-17T03:26:26.139Z,1.06
2022-12-17T03:27:28.080Z,1.04
2022-12-17T03:28:30.306Z,1.05
2022-12-17T03:29:32.198Z,1.08
2022-12-17T03:30:36.543Z,1.05
2022-12-17T03:31:38.666Z,1.03
2022-12-17T03:32:40.763Z,1.05
2022-12-17T03:33:43.490Z,1.07
2022-12-17T03:34:45.532Z,1.06
2022-12-17T03:35:47.502Z,1.05
2022-12-17T03:36:50.100Z,1.05
2022-12-17T03:37:51.992Z,1.07
2022-12-17T03:38:53.962Z,1.11
2022-12-17T03:39:55.951Z,1.08
2022-12-17T03:40:58.286Z,1.07
2022-12-17T03:42:00.295Z,1.07
2022-12-17T03:43:10.516Z,1.09
2022-12-17T03:44:12.539Z,1.08
2022-12-17T03:45:15.574Z,1.09
2022-12-17T03:46:17.668Z,1.12
2022-12-17T03:47:19.774Z,1.10
2022-12-17T03:48:21.646Z,1.12
2022-12-17T03:49:23.503Z,1.11
2022-12-17T03:50:26.820Z,1.08
2022-12-17T03:51:29.302Z,1.09
2022-12-17T03:52:31.404Z,1.11
2022-12-17T03:53:33.715Z,1.11
2022-12-17T03:54:35.846Z,1.11
2022-12-17T03:55:39.028Z,1.09
2022-12-17T03:56:43.620Z,1.11
2022-12-17T03:57:45.669Z,1.11
2022-12-17T03:58:47.572Z,1.08
2022-12-17T03:59:49.617Z,1.10
2022-12-17T04:00:51.701Z,1.11
2022-12-17T04:01:54.622Z,1.11
2022-12-17T04:02:56.974Z,1.09
2022-12-17T04:04:00.150Z,1.08
2022-12-17T04:05:02.143Z,1.05
2022-12-17T04:06:04.605Z,1.07
2022-12-17T04:07:06.518Z,1.08
2022-12-17T04:08:08.388Z,1.04
2022-12-17T04:09:10.345Z,1.04
2022-12-17T04:10:12.706Z,1.08
2022-12-17T04:11:14.590Z,1.11
2022-12-17T04:12:18.225Z,1.05
2022-12-17T04:13:20.368Z,1.07
2022-12-17T04:14:22.247Z,1.08
2022-12-17T04:15:24.984Z,1.07
2022-12-17T04:16:27.391Z,1.11
2022-12-17T04:17:29.448Z,1.14
2022-12-17T04:18:31.639Z,1.12
2022-12-17T04:19:33.513Z,1.13
2022-12-17T04:20:35.799Z,1.11
2022-12-17T04:21:37.776Z,1.07
2022-12-17T04:22:39.653Z,1.01
2022-12-17T04:23:41.527Z,1.05
2022-12-17T04:24:43.479Z,1.04
2022-12-17T04:25:45.363Z,1.05
2022-12-17T04:26:48.559Z,1.08
2022-12-17T04:27:51.490Z,1.05
2022-12-17T04:28:53.427Z,1.07
2022-12-17T04:29:55.323Z,1.08
2022-12-17T04:30:57.439Z,1.07
2022-12-17T04:32:00.748Z,1.05
2022-12-17T04:33:02.910Z,1.04
2022-12-17T04:34:04.926Z,1.09
2022-12-17T04:35:08.139Z,1.08
2022-12-17T04:36:10.365Z,1.05
2022-12-17T04:37:12.250Z,1.10
2022-12-17T04:38:14.254Z,1.11
2022-12-17T04:39:16.665Z,1.10
2022-12-17T04:40:22.277Z,1.09
2022-12-17T04:41:24.213Z,1.05
2022-12-17T04:42:26.104Z,1.02
2022-12-17T04:43:27.968Z,1.04
2022-12-17T04:44:30.144Z,1.06
2022-12-17T04:45:32.061Z,1.07
2022-12-17T04:46:34.144Z,1.07
2022-12-17T04:47:36.900Z,1.09
2022-12-17T04:48:39.046Z,1.08
2022-12-17T04:49:41.114Z,1.11
2022-12-17T04:50:43.133Z,1.01
2022-12-17T04:51:45.013Z,1.04
2022-12-17T04:52:46.896Z,1.04
2022-12-17T04:53:48.825Z,1.04
2022-12-17T04:54:51.241Z,0.98
2022-12-17T04:55:56.301Z,0.88
2022-12-17T04:56:58.431Z,0.90
2022-12-17T04:58:05.888Z,0.83
2022-12-17T04:59:07.881Z,0.80
2022-12-17T05:00:11.238Z,0.78
2022-12-17T05:01:13.273Z,0.73
2022-12-17T05:02:15.469Z,0.77
2022-12-17T05:03:17.642Z,0.82
2022-12-17T05:04:19.694Z,0.83
2022-12-17T05:05:24.451Z,0.85
2022-12-17T05:06:26.679Z,0.92
2022-12-17T05:07:28.554Z,0.95
2022-12-17T05:08:30.432Z,0.77
2022-12-17T05:09:32.506Z,0.66
2022-12-17T05:10:34.718Z,0.77
2022-12-17T05:11:36.632Z,0.85
2022-12-17T05:12:38.550Z,0.93
2022-12-17T05:13:40.443Z,0.96
2022-12-17T05:14:43.291Z,0.95
2022-12-17T05:15:51.350Z,0.98
2022-12-17T05:16:49.747Z,0.97
2022-12-17T05:17:52.181Z,0.99
2022-12-17T05:18:54.185Z,1.03
2022-12-17T05:19:56.295Z,1.04
2022-12-17T05:20:58.328Z,1.07
2022-12-17T05:22:00.324Z,1.07
2022-12-17T05:23:07.275Z,1.14
2022-12-17T05:24:10.783Z,1.09
2022-12-17T10:01:15.914Z,1.15
2022-12-17T10:02:27.639Z,1.04
2022-12-17T10:03:32.082Z,1.04
2022-12-17T10:04:40.752Z,1.11
2022-12-17T10:05:45.638Z,1.13
2022-12-17T10:06:48.254Z,1.12
2022-12-17T10:07:52.788Z,1.11
2022-12-17T10:09:03.589Z,1.15
2022-12-17T10:10:25.217Z,1.09
2022-12-17T10:11:34.314Z,1.13
2022-12-17T10:12:34.940Z,1.19
2022-12-17T10:13:37.289Z,1.22
2022-12-17T10:14:39.542Z,1.27
2022-12-17T10:15:43.031Z,1.30
2022-12-17T10:16:46.169Z,1.38
2022-12-17T10:17:48.051Z,1.41
2022-12-17T10:18:50.226Z,1.49
2022-12-17T10:19:54.735Z,1.52
2022-12-17T10:21:09.693Z,1.54
2022-12-17T10:22:14.965Z,1.61
2022-12-17T10:24:55.231Z,1.58
2022-12-17T10:25:57.150Z,1.39
2022-12-17T10:27:02.956Z,1.39
